Time;durP1;ratioP1;P1;durP2;ratioP2;P2;SDS_P1;SDS_P2;PMS_P1;PMS_P2;Temp;Humidity;BMP_temperature;BMP_pressure;BME280_temperature;BME280_humidity;BME280_pressure;Samples;Min_cycle;Max_cycle;Signal;HPM_P1;HPM_P2
2023/08/28 00:00:26;;;;;;;1.08;0.50;;;17.00;99.90;;;;;;4421084;32;20081;-76
2023/08/28 00:02:53;;;;;;;0.30;0.30;;;16.90;99.90;;;;;;4421764;32;20057;-77
2023/08/28 00:05:18;;;;;;;0.40;0.40;;;16.90;99.90;;;;;;4421470;32;20092;-76
2023/08/28 00:07:43;;;;;;;0.62;0.62;;;16.80;99.90;;;;;;4421388;32;20069;-77
2023/08/28 00:10:10;;;;;;;0.47;0.47;;;16.70;99.90;;;;;;4419042;32;20097;-76
2023/08/28 00:12:40;;;;;;;0.40;0.40;;;16.60;99.90;;;;;;4418326;32;20069;-77
2023/08/28 00:15:07;;;;;;;0.30;0.30;;;16.60;99.90;;;;;;4418475;32;20081;-76
2023/08/28 00:17:32;;;;;;;0.30;0.30;;;16.50;99.90;;;;;;4419720;32;20078;-76
2023/08/28 00:19:57;;;;;;;0.32;0.32;;;16.50;99.90;;;;;;4416141;32;20814;-76
2023/08/28 00:22:23;;;;;;;0.30;0.30;;;16.50;99.90;;;;;;4419695;32;20069;-76
2023/08/28 00:24:48;;;;;;;0.30;0.30;;;16.40;99.90;;;;;;4419363;32;20137;-75
2023/08/28 00:27:14;;;;;;;0.50;0.50;;;16.40;99.90;;;;;;4420284;32;20089;-76
2023/08/28 00:29:39;;;;;;;0.80;0.50;;;16.40;99.90;;;;;;4418236;32;20155;-77
2023/08/28 00:32:05;;;;;;;0.30;0.30;;;16.40;99.90;;;;;;4419246;32;20074;-76
2023/08/28 00:34:30;;;;;;;0.40;0.40;;;16.40;99.90;;;;;;4416237;32;20105;-77
2023/08/28 00:36:56;;;;;;;0.68;0.60;;;16.30;99.90;;;;;;4417083;32;20065;-77
2023/08/28 00:39:22;;;;;;;0.30;0.30;;;16.30;99.90;;;;;;4419519;32;20128;-77
2023/08/28 00:41:47;;;;;;;0.20;0.20;;;16.30;99.90;;;;;;4421379;32;20448;-74
2023/08/28 00:44:12;;;;;;;0.20;0.20;;;16.30;99.90;;;;;;4421787;32;20537;-73
2023/08/28 00:46:38;;;;;;;0.30;0.30;;;16.20;99.90;;;;;;4423969;32;20441;-74
2023/08/28 00:49:04;;;;;;;0.35;0.35;;;16.10;99.90;;;;;;4425029;32;20120;-75
2023/08/28 00:51:30;;;;;;;0.30;0.30;;;16.00;99.90;;;;;;4423773;32;20086;-75
2023/08/28 00:53:56;;;;;;;6.47;1.33;;;16.00;99.90;;;;;;4423626;32;20128;-74
2023/08/28 00:56:22;;;;;;;1.85;0.65;;;16.00;99.90;;;;;;4423165;32;20072;-74
2023/08/28 00:58:47;;;;;;;0.30;0.30;;;15.90;99.90;;;;;;4423900;32;20088;-74
2023/08/28 01:01:13;;;;;;;0.30;0.30;;;15.90;99.90;;;;;;4421010;32;20069;-75
2023/08/28 01:03:39;;;;;;;0.40;0.40;;;15.90;99.90;;;;;;4420331;32;20077;-76
2023/08/28 01:06:19;;;;;;;0.30;0.30;;;15.90;99.90;;;;;;4421799;32;20069;-75
2023/08/28 01:09:00;;;;;;;0.30;0.30;;;15.90;99.90;;;;;;4423229;32;20081;-75
2023/08/28 01:11:53;;;;;;;0.30;0.30;;;15.90;99.90;;;;;;4421852;32;20144;-75
2023/08/28 01:14:25;;;;;;;0.20;0.20;;;15.70;99.90;;;;;;4421395;32;20505;-74
2023/08/28 01:16:53;;;;;;;0.85;0.40;;;15.70;99.90;;;;;;4422330;32;21344;-74
2023/08/28 01:19:29;;;;;;;0.40;0.40;;;15.70;99.90;;;;;;4421492;32;20097;-75
2023/08/28 01:22:30;;;;;;;0.22;0.22;;;15.70;99.90;;;;;;4421831;32;20106;-75
2023/08/28 01:25:03;;;;;;;;;;;15.60;99.90;;;;;;4423594;32;20118;-75
2023/08/28 01:27:30;;;;;;;0.40;0.40;;;15.60;99.90;;;;;;4419883;32;19953;-75
2023/08/28 01:30:13;;;;;;;0.30;0.30;;;15.60;99.90;;;;;;4423484;32;20061;-75
2023/08/28 01:32:40;;;;;;;0.45;0.45;;;15.50;99.90;;;;;;4417287;32;20094;-76
2023/08/28 01:35:10;;;;;;;0.30;0.30;;;15.50;99.90;;;;;;4417894;32;20676;-76
2023/08/28 01:38:00;;;;;;;0.30;0.30;;;15.60;99.90;;;;;;4418471;32;20085;-76
2023/08/28 01:40:32;;;;;;;0.30;0.30;;;15.60;99.90;;;;;;4417075;32;20852;-77
2023/08/28 01:43:01;;;;;;;1.80;1.20;;;15.60;99.90;;;;;;4419272;32;20088;-77
2023/08/28 01:45:28;;;;;;;0.35;0.35;;;15.50;99.90;;;;;;4422311;32;20406;-77
2023/08/28 01:47:54;;;;;;;0.22;0.22;;;15.50;99.90;;;;;;4421346;32;20065;-76
2023/08/28 01:50:19;;;;;;;0.28;0.28;;;15.50;99.90;;;;;;4420739;32;20230;-77
2023/08/28 01:52:45;;;;;;;0.40;0.40;;;15.50;99.90;;;;;;4421416;32;20131;-73
2023/08/28 01:55:10;;;;;;;0.30;0.30;;;15.30;99.90;;;;;;4421017;32;20093;-74
2023/08/28 01:57:36;;;;;;;0.60;0.50;;;15.30;99.90;;;;;;4423362;32;20101;-74
2023/08/28 02:00:01;;;;;;;0.40;0.40;;;15.20;99.90;;;;;;4420550;32;20105;-77
2023/08/28 02:02:26;;;;;;;0.30;0.30;;;15.20;99.90;;;;;;4421720;32;20105;-74
2023/08/28 02:04:52;;;;;;;0.68;0.68;;;15.20;99.90;;;;;;4424753;32;20078;-74
2023/08/28 02:07:18;;;;;;;0.30;0.30;;;15.20;99.90;;;;;;4423315;32;20101;-74
2023/08/28 02:09:43;;;;;;;0.40;0.40;;;15.10;99.90;;;;;;4421632;32;20073;-75
2023/08/28 02:12:09;;;;;;;0.40;0.40;;;15.10;99.90;;;;;;4421935;32;20096;-74
2023/08/28 02:14:34;;;;;;;0.35;0.35;;;15.10;99.90;;;;;;4423200;32;20082;-73
2023/08/28 02:16:59;;;;;;;2.70;0.47;;;15.10;99.90;;;;;;4422662;32;20517;-76
2023/08/28 02:19:26;;;;;;;0.30;0.30;;;15.00;99.90;;;;;;4422239;32;20113;-75
2023/08/28 02:21:51;;;;;;;0.30;0.30;;;15.10;99.90;;;;;;4421998;32;20065;-73
2023/08/28 02:24:18;;;;;;;0.30;0.30;;;15.10;99.90;;;;;;4421369;32;20106;-74
2023/08/28 02:26:43;;;;;;;0.30;0.30;;;15.00;99.90;;;;;;4421254;32;20092;-75
2023/08/28 02:29:09;;;;;;;0.30;0.30;;;15.00;99.90;;;;;;4422749;32;20196;-74
2023/08/28 02:31:34;;;;;;;0.30;0.30;;;15.00;99.90;;;;;;4422661;32;20159;-74
2023/08/28 02:34:00;;;;;;;0.37;0.37;;;15.00;99.90;;;;;;4420885;32;20073;-75
2023/08/28 02:36:25;;;;;;;0.75;0.40;;;15.00;99.90;;;;;;4421786;32;20061;-75
2023/08/28 02:38:51;;;;;;;0.32;0.32;;;14.90;99.90;;;;;;4422129;32;20074;-74
2023/08/28 02:41:16;;;;;;;0.30;0.30;;;14.80;99.90;;;;;;4421196;32;20062;-75
2023/08/28 02:43:42;;;;;;;0.30;0.30;;;14.70;99.90;;;;;;4419799;32;20090;-75
2023/08/28 02:46:08;;;;;;;0.40;0.40;;;14.70;99.90;;;;;;4418113;32;20132;-75
2023/08/28 02:48:34;;;;;;;0.40;0.40;;;14.60;99.90;;;;;;4422489;32;20100;-75
2023/08/28 02:50:59;;;;;;;0.47;0.47;;;14.50;99.90;;;;;;4420940;32;20084;-76
2023/08/28 02:53:25;;;;;;;0.40;0.40;;;14.50;99.90;;;;;;4422119;32;20073;-77
2023/08/28 02:56:24;;;;;;;0.30;0.30;;;14.50;99.90;;;;;;4422240;32;20379;-76
2023/08/28 02:58:51;;;;;;;0.40;0.40;;;14.50;99.90;;;;;;4412317;32;20105;-77
2023/08/28 03:01:17;;;;;;;0.30;0.30;;;14.70;99.90;;;;;;4419417;32;20101;-77
2023/08/28 03:03:43;;;;;;;0.40;0.40;;;14.60;99.90;;;;;;4422014;32;20074;-77
2023/08/28 03:06:08;;;;;;;0.30;0.30;;;14.60;99.90;;;;;;4418487;32;20069;-74
2023/08/28 03:08:34;;;;;;;0.30;0.30;;;14.60;99.90;;;;;;4423049;32;21434;-75
2023/08/28 03:10:59;;;;;;;0.30;0.30;;;14.60;99.90;;;;;;4421013;32;20089;-74
2023/08/28 03:13:25;;;;;;;0.40;0.40;;;14.50;99.90;;;;;;4420299;32;20088;-75
2023/08/28 03:15:51;;;;;;;0.55;0.50;;;14.50;99.90;;;;;;4423853;32;20093;-74
2023/08/28 03:18:18;;;;;;;0.30;0.30;;;14.50;99.90;;;;;;4423375;32;20061;-76
2023/08/28 03:20:44;;;;;;;0.30;0.30;;;14.40;99.90;;;;;;4420893;32;20073;-76
2023/08/28 03:23:09;;;;;;;0.30;0.30;;;14.40;99.90;;;;;;4421436;32;20143;-74
2023/08/28 03:25:35;;;;;;;0.25;0.25;;;14.40;99.90;;;;;;4423183;32;20078;-73
2023/08/28 03:28:02;;;;;;;0.57;0.57;;;14.30;99.90;;;;;;4424982;32;20116;-75
2023/08/28 03:30:29;;;;;;;0.40;0.40;;;14.20;99.90;;;;;;4422935;32;20102;-76
2023/08/28 03:32:55;;;;;;;0.40;0.40;;;14.30;99.90;;;;;;4423697;32;20069;-75
2023/08/28 03:35:20;;;;;;;0.35;0.35;;;14.10;99.90;;;;;;4421051;32;20082;-74
2023/08/28 03:37:46;;;;;;;0.20;0.20;;;14.10;99.90;;;;;;4422614;32;20135;-75
2023/08/28 03:40:12;;;;;;;0.52;0.28;;;14.00;99.90;;;;;;4421354;32;20102;-75
2023/08/28 03:42:38;;;;;;;0.30;0.30;;;14.00;99.90;;;;;;4420730;32;20540;-75
2023/08/28 03:45:03;;;;;;;0.30;0.30;;;14.00;99.90;;;;;;4423505;32;20089;-74
2023/08/28 03:47:29;;;;;;;0.40;0.40;;;14.10;99.90;;;;;;4421673;32;20130;-75
2023/08/28 03:49:54;;;;;;;0.52;0.47;;;14.00;99.90;;;;;;4422290;32;20457;-75
2023/08/28 03:52:20;;;;;;;0.28;0.28;;;14.00;99.90;;;;;;4421615;32;20069;-76
2023/08/28 03:54:46;;;;;;;0.30;0.30;;;14.00;99.90;;;;;;4422633;32;20216;-74
2023/08/28 03:57:11;;;;;;;0.52;0.52;;;14.00;99.90;;;;;;4421673;32;20085;-75
2023/08/28 03:59:36;;;;;;;0.37;0.37;;;14.00;99.90;;;;;;4422106;32;20066;-76
2023/08/28 04:02:03;;;;;;;0.30;0.30;;;14.00;99.90;;;;;;4419293;32;20096;-76
2023/08/28 04:04:28;;;;;;;0.32;0.32;;;14.00;99.90;;;;;;4418806;32;20597;-77
2023/08/28 04:06:58;;;;;;;0.30;0.30;;;14.00;99.90;;;;;;4419024;32;20093;-77
2023/08/28 04:09:23;;;;;;;5.93;0.60;;;14.00;99.90;;;;;;4417024;32;20094;-76
2023/08/28 04:11:49;;;;;;;0.20;0.20;;;14.00;99.90;;;;;;4416556;32;20438;-76
2023/08/28 04:14:14;;;;;;;0.30;0.30;;;14.00;99.90;;;;;;4421344;32;20097;-74
2023/08/28 04:16:40;;;;;;;0.70;0.60;;;14.00;99.90;;;;;;4421611;32;20133;-74
2023/08/28 04:19:05;;;;;;;0.35;0.35;;;14.00;99.90;;;;;;4422875;32;20071;-74
2023/08/28 04:21:31;;;;;;;0.40;0.40;;;14.00;99.90;;;;;;4413740;32;20101;-75
2023/08/28 04:23:56;;;;;;;0.22;0.22;;;14.00;99.90;;;;;;4417840;32;20078;-75
2023/08/28 04:26:22;;;;;;;0.50;0.50;;;14.00;99.90;;;;;;4419457;32;20185;-76
2023/08/28 04:28:47;;;;;;;1.75;0.40;;;14.10;99.90;;;;;;4420893;32;20089;-74
2023/08/28 04:31:13;;;;;;;0.50;0.50;;;14.10;99.90;;;;;;4417816;32;20081;-75
2023/08/28 04:33:40;;;;;;;0.25;0.25;;;14.10;99.90;;;;;;4418430;32;20101;-75
2023/08/28 04:36:05;;;;;;;0.40;0.40;;;14.20;99.90;;;;;;4422181;32;20427;-75
2023/08/28 04:38:31;;;;;;;0.50;0.50;;;14.20;99.90;;;;;;4421220;32;20082;-75
2023/08/28 04:40:56;;;;;;;0.37;0.37;;;14.30;99.90;;;;;;4418700;32;20096;-74
2023/08/28 04:43:22;;;;;;;0.98;0.65;;;14.40;99.90;;;;;;4422576;32;20106;-75
2023/08/28 04:45:49;;;;;;;0.40;0.40;;;14.30;99.90;;;;;;4419131;32;20495;-74
2023/08/28 04:48:14;;;;;;;0.37;0.37;;;14.30;99.90;;;;;;4420024;32;20472;-75
2023/08/28 04:50:41;;;;;;;0.30;0.30;;;14.30;99.90;;;;;;4418369;32;20064;-74
2023/08/28 04:53:07;;;;;;;0.52;0.52;;;14.30;99.90;;;;;;4416890;32;20073;-74
2023/08/28 04:55:32;;;;;;;0.30;0.30;;;14.30;99.90;;;;;;4418388;32;20072;-74
2023/08/28 04:57:58;;;;;;;0.68;0.60;;;14.20;99.90;;;;;;4419300;32;20081;-73
2023/08/28 05:00:23;;;;;;;0.37;0.37;;;14.20;99.90;;;;;;4418550;32;20541;-75
2023/08/28 05:02:49;;;;;;;0.45;0.45;;;14.30;99.90;;;;;;4416192;32;20070;-73
2023/08/28 05:05:15;;;;;;;0.73;0.62;;;14.40;99.90;;;;;;4418874;32;20129;-73
2023/08/28 05:07:42;;;;;;;0.57;0.57;;;14.30;99.90;;;;;;4418241;32;20094;-74
2023/08/28 05:10:08;;;;;;;0.40;0.40;;;14.20;99.90;;;;;;4420786;32;20085;-72
2023/08/28 05:12:33;;;;;;;0.40;0.40;;;14.20;99.90;;;;;;4418767;32;20130;-77
2023/08/28 05:14:59;;;;;;;0.40;0.40;;;14.20;99.90;;;;;;4417557;32;20084;-76
2023/08/28 05:17:24;;;;;;;0.65;0.60;;;14.20;99.90;;;;;;4409469;32;21085;-74
2023/08/28 05:19:50;;;;;;;0.40;0.40;;;14.20;99.90;;;;;;4415154;32;20232;-77
2023/08/28 05:22:15;;;;;;;0.73;0.73;;;14.20;99.90;;;;;;4419411;32;20117;-75
2023/08/28 05:24:41;;;;;;;0.50;0.50;;;14.30;99.90;;;;;;4420144;32;20088;-75
2023/08/28 05:27:08;;;;;;;0.50;0.50;;;14.40;99.90;;;;;;4410539;32;20092;-76
2023/08/28 05:29:34;;;;;;;0.40;0.40;;;14.40;99.90;;;;;;4414175;32;20093;-74
2023/08/28 05:32:01;;;;;;;0.30;0.30;;;14.50;99.90;;;;;;4400175;32;20086;-75
2023/08/28 05:34:26;;;;;;;0.30;0.30;;;14.50;99.90;;;;;;4419510;32;20137;-75
2023/08/28 05:36:54;;;;;;;0.30;0.30;;;14.50;99.90;;;;;;4410486;32;20494;-75
2023/08/28 05:39:26;;;;;;;0.50;0.50;;;14.60;99.90;;;;;;4409898;32;20061;-75
2023/08/28 05:41:53;;;;;;;0.45;0.45;;;14.60;99.90;;;;;;4415118;32;20084;-75
2023/08/28 05:44:23;;;;;;;0.20;0.20;;;14.50;99.90;;;;;;4417955;32;20159;-75
2023/08/28 05:46:49;;;;;;;0.50;0.50;;;14.40;99.90;;;;;;4411525;32;20089;-77
2023/08/28 05:49:15;;;;;;;0.30;0.30;;;14.40;99.90;;;;;;4417357;32;20073;-75
2023/08/28 05:51:41;;;;;;;0.40;0.40;;;14.40;99.90;;;;;;4411144;32;20093;-77
2023/08/28 05:54:08;;;;;;;2.25;0.62;;;14.40;99.90;;;;;;4419224;32;20092;-75
2023/08/28 05:56:34;;;;;;;0.47;0.47;;;14.50;99.90;;;;;;4415114;32;20184;-75
2023/08/28 05:59:00;;;;;;;0.30;0.30;;;14.60;99.90;;;;;;4417225;32;20068;-75
2023/08/28 06:01:26;;;;;;;2.20;0.95;;;14.60;99.90;;;;;;4418274;32;20545;-72
2023/08/28 06:03:55;;;;;;;0.40;0.40;;;14.50;99.90;;;;;;4412492;32;20070;-75
2023/08/28 06:06:23;;;;;;;0.35;0.35;;;14.40;99.90;;;;;;4420007;32;20088;-74
2023/08/28 06:08:49;;;;;;;0.50;0.50;;;14.40;99.90;;;;;;4416937;32;20192;-73
2023/08/28 06:11:14;;;;;;;0.40;0.40;;;14.40;99.90;;;;;;4415898;32;20609;-74
2023/08/28 06:13:40;;;;;;;0.50;0.50;;;14.50;99.90;;;;;;4409450;32;20106;-75
2023/08/28 06:16:06;;;;;;;0.32;0.32;;;14.60;99.90;;;;;;4409843;32;20560;-74
2023/08/28 06:18:32;;;;;;;0.30;0.30;;;14.60;99.90;;;;;;4407941;32;20080;-76
2023/08/28 06:20:58;;;;;;;4.62;1.70;;;14.60;99.90;;;;;;4400835;32;20162;-75
2023/08/28 06:23:24;;;;;;;0.40;0.40;;;14.60;99.90;;;;;;4404301;32;20610;-74
2023/08/28 06:25:49;;;;;;;2.47;1.20;;;14.80;99.90;;;;;;4413639;32;20113;-76
2023/08/28 06:28:15;;;;;;;0.90;0.45;;;14.90;99.90;;;;;;4401935;32;20577;-74
2023/08/28 06:30:41;;;;;;;0.40;0.40;;;14.80;99.90;;;;;;4405010;32;20101;-73
2023/08/28 06:33:07;;;;;;;0.40;0.40;;;14.90;99.90;;;;;;4410697;32;20562;-74
2023/08/28 06:35:32;;;;;;;0.43;0.43;;;15.00;99.90;;;;;;4408885;32;20133;-76
2023/08/28 06:37:58;;;;;;;0.47;0.47;;;15.00;99.90;;;;;;4403683;32;20101;-72
2023/08/28 06:40:24;;;;;;;0.50;0.50;;;15.10;99.90;;;;;;4405576;32;20501;-75
2023/08/28 06:42:49;;;;;;;0.30;0.30;;;15.10;99.90;;;;;;4407680;32;20507;-75
2023/08/28 06:45:17;;;;;;;0.55;0.50;;;15.20;99.90;;;;;;4405211;32;20088;-75
2023/08/28 06:47:43;;;;;;;0.30;0.30;;;15.40;99.90;;;;;;4411299;32;20456;-73
2023/08/28 06:50:09;;;;;;;1.00;0.77;;;15.50;99.90;;;;;;4406247;32;20135;-76
2023/08/28 06:52:36;;;;;;;0.32;0.32;;;15.40;99.90;;;;;;4399244;32;20093;-73
2023/08/28 06:55:02;;;;;;;0.30;0.30;;;15.40;99.90;;;;;;4402700;32;20143;-75
2023/08/28 06:57:28;;;;;;;0.30;0.30;;;15.50;99.90;;;;;;4402246;32;20203;-75
2023/08/28 06:59:53;;;;;;;0.30;0.30;;;15.50;99.90;;;;;;4399376;32;20109;-76
2023/08/28 07:02:20;;;;;;;0.60;0.60;;;15.60;99.90;;;;;;4399747;32;20340;-74
2023/08/28 07:04:46;;;;;;;0.40;0.40;;;15.70;99.90;;;;;;4399403;32;20109;-75
2023/08/28 07:07:17;;;;;;;0.40;0.40;;;15.80;99.90;;;;;;4405726;32;20588;-73
2023/08/28 07:09:44;;;;;;;0.65;0.43;;;15.80;99.90;;;;;;4408273;32;20663;-75
2023/08/28 07:12:09;;;;;;;0.30;0.30;;;15.80;99.90;;;;;;4405837;32;20189;-75
2023/08/28 07:14:35;;;;;;;0.30;0.30;;;15.80;99.90;;;;;;4401671;32;20093;-75
2023/08/28 07:17:02;;;;;;;1.23;0.50;;;15.80;99.90;;;;;;4406706;32;20378;-76
2023/08/28 07:19:28;;;;;;;0.30;0.30;;;15.90;99.90;;;;;;4408979;32;20093;-76
2023/08/28 07:21:54;;;;;;;0.50;0.50;;;16.00;99.90;;;;;;4402742;32;20430;-77
2023/08/28 07:24:21;;;;;;;0.40;0.40;;;16.10;99.90;;;;;;4402052;32;20101;-77
2023/08/28 07:26:46;;;;;;;0.37;0.37;;;16.20;99.90;;;;;;4397611;32;20102;-74
2023/08/28 07:29:12;;;;;;;1.00;0.80;;;16.20;99.90;;;;;;4404860;32;20342;-75
2023/08/28 07:31:38;;;;;;;0.30;0.30;;;16.30;99.90;;;;;;4403733;32;20118;-77
2023/08/28 07:34:04;;;;;;;0.35;0.35;;;16.40;99.90;;;;;;4397225;32;20376;-76
2023/08/28 07:36:30;;;;;;;0.28;0.28;;;16.60;99.90;;;;;;4406901;32;20125;-76
2023/08/28 07:38:56;;;;;;;0.30;0.30;;;16.50;99.90;;;;;;4403019;32;20094;-73
2023/08/28 07:41:23;;;;;;;0.30;0.30;;;16.60;99.90;;;;;;4410007;32;20081;-75
2023/08/28 07:43:49;;;;;;;0.30;0.30;;;16.60;99.90;;;;;;4408109;32;20475;-74
2023/08/28 07:46:15;;;;;;;0.30;0.30;;;16.70;99.90;;;;;;4407227;32;20096;-73
2023/08/28 07:48:40;;;;;;;0.32;0.32;;;16.70;99.90;;;;;;4396963;32;20191;-77
2023/08/28 07:51:06;;;;;;;0.30;0.30;;;16.80;99.90;;;;;;4393745;32;20556;-75
2023/08/28 07:53:32;;;;;;;0.32;0.32;;;16.80;99.90;;;;;;4401705;32;21547;-73
2023/08/28 07:55:59;;;;;;;1.55;0.40;;;16.80;99.90;;;;;;4398688;32;20114;-75
2023/08/28 07:58:25;;;;;;;0.30;0.30;;;16.70;99.90;;;;;;4394141;32;20105;-76
2023/08/28 08:00:50;;;;;;;0.40;0.40;;;16.60;99.90;;;;;;4397564;32;20439;-75
2023/08/28 08:03:16;;;;;;;3.12;1.40;;;16.70;99.90;;;;;;4400168;32;20158;-73
2023/08/28 08:05:41;;;;;;;0.30;0.30;;;16.70;99.90;;;;;;4398330;32;20184;-75
2023/08/28 08:08:07;;;;;;;0.20;0.20;;;16.70;99.90;;;;;;4394547;32;21157;-77
2023/08/28 08:10:36;;;;;;;0.30;0.30;;;16.70;99.90;;;;;;4404207;32;20133;-77
2023/08/28 08:13:02;;;;;;;0.45;0.45;;;16.80;99.90;;;;;;4401024;32;20129;-74
2023/08/28 08:15:28;;;;;;;0.40;0.40;;;17.00;99.90;;;;;;4405867;32;20089;-74
2023/08/28 08:17:53;;;;;;;0.52;0.52;;;17.00;99.90;;;;;;4403593;32;20080;-74
2023/08/28 08:20:20;;;;;;;0.52;0.52;;;17.00;99.90;;;;;;4399437;32;20330;-74
2023/08/28 08:22:46;;;;;;;0.20;0.20;;;17.00;99.90;;;;;;4404099;32;20077;-74
2023/08/28 08:25:13;;;;;;;0.43;0.43;;;17.10;99.90;;;;;;4389389;32;20097;-77
2023/08/28 08:27:39;;;;;;;0.32;0.32;;;17.10;99.90;;;;;;4403138;32;20081;-75
2023/08/28 08:30:07;;;;;;;1.05;0.75;;;17.10;99.90;;;;;;4398570;32;20223;-74
2023/08/28 08:32:32;;;;;;;0.75;0.75;;;17.20;99.90;;;;;;4389197;32;20101;-75
2023/08/28 08:34:59;;;;;;;0.30;0.30;;;17.10;99.90;;;;;;4390030;32;20752;-75
2023/08/28 08:37:27;;;;;;;0.55;0.55;;;17.30;99.90;;;;;;4385419;32;20161;-75
2023/08/28 08:39:52;;;;;;;0.30;0.30;;;17.50;99.90;;;;;;4395888;32;20108;-74
2023/08/28 08:42:18;;;;;;;0.43;0.40;;;17.60;99.90;;;;;;4397478;32;20090;-74
2023/08/28 08:44:44;;;;;;;0.40;0.40;;;17.80;99.90;;;;;;4397912;32;20640;-74
2023/08/28 08:47:10;;;;;;;0.40;0.40;;;18.00;99.90;;;;;;4400109;32;20139;-73
2023/08/28 08:49:40;;;;;;;0.30;0.30;;;18.00;99.90;;;;;;4397213;32;20188;-74
2023/08/28 08:52:08;;;;;;;0.30;0.30;;;17.90;99.90;;;;;;4396299;32;20649;-76
2023/08/28 08:54:41;;;;;;;0.30;0.30;;;17.90;99.90;;;;;;4395870;32;20537;-75
2023/08/28 08:57:14;;;;;;;0.30;0.30;;;18.00;99.90;;;;;;4394125;32;20596;-75
2023/08/28 08:59:40;;;;;;;0.30;0.30;;;18.20;99.90;;;;;;4401083;32;20379;-74
2023/08/28 09:02:08;;;;;;;0.30;0.30;;;18.30;99.90;;;;;;4398593;32;20094;-74
2023/08/28 09:04:34;;;;;;;2.50;0.82;;;18.30;99.90;;;;;;4400823;32;20388;-73
2023/08/28 09:07:03;;;;;;;0.30;0.30;;;18.30;99.90;;;;;;4394809;32;20074;-75
2023/08/28 09:09:30;;;;;;;0.30;0.30;;;18.20;99.90;;;;;;4399511;32;20077;-73
2023/08/28 09:11:57;;;;;;;0.30;0.30;;;18.10;99.90;;;;;;4402504;32;20638;-73
2023/08/28 09:14:22;;;;;;;0.20;0.20;;;18.10;99.90;;;;;;4400345;32;20153;-75
2023/08/28 09:16:48;;;;;;;0.30;0.30;;;18.10;99.90;;;;;;4394665;32;20191;-75
2023/08/28 09:19:15;;;;;;;0.40;0.40;;;18.00;99.90;;;;;;4390188;32;20069;-75
2023/08/28 09:21:46;;;;;;;0.35;0.35;;;18.00;99.90;;;;;;4389854;32;20089;-74
2023/08/28 09:24:12;;;;;;;0.30;0.30;;;18.00;99.90;;;;;;4389224;32;20171;-75
2023/08/28 09:26:39;;;;;;;0.30;0.30;;;18.10;99.90;;;;;;4394361;32;20098;-74
2023/08/28 09:29:07;;;;;;;0.40;0.40;;;18.00;99.90;;;;;;4399981;32;20146;-76
2023/08/28 09:31:36;;;;;;;0.30;0.30;;;17.90;99.90;;;;;;4391314;32;20415;-74
2023/08/28 09:34:03;;;;;;;0.62;0.62;;;17.90;99.90;;;;;;4395613;32;20626;-76
2023/08/28 09:36:32;;;;;;;0.30;0.30;;;17.80;99.90;;;;;;4398333;32;20446;-75
2023/08/28 09:39:00;;;;;;;0.43;0.43;;;17.80;99.90;;;;;;4401095;32;20162;-76
2023/08/28 09:41:46;;;;;;;0.40;0.40;;;17.90;99.90;;;;;;4396413;32;20738;-75
2023/08/28 09:44:16;;;;;;;5.68;1.95;;;17.90;99.90;;;;;;4393272;32;20097;-76
2023/08/28 09:46:43;;;;;;;0.30;0.30;;;18.00;99.90;;;;;;4409731;32;20093;-77
2023/08/28 09:49:10;;;;;;;0.30;0.30;;;18.00;99.90;;;;;;4402758;32;20085;-78
2023/08/28 09:51:51;;;;;;;0.85;0.47;;;18.10;99.90;;;;;;4402880;32;20089;-77
2023/08/28 09:54:17;;;;;;;0.40;0.40;;;18.10;99.90;;;;;;4392983;32;20113;-78
2023/08/28 09:56:43;;;;;;;0.30;0.30;;;18.10;99.90;;;;;;4398563;32;20086;-77
2023/08/28 09:59:13;;;;;;;0.30;0.30;;;18.10;99.90;;;;;;4406291;32;20680;-77
2023/08/28 10:01:38;;;;;;;0.40;0.40;;;18.00;99.90;;;;;;4399966;32;20223;-77
2023/08/28 10:04:06;;;;;;;0.40;0.40;;;18.00;99.90;;;;;;4404582;32;20109;-75
2023/08/28 10:06:35;;;;;;;0.47;0.47;;;18.00;99.90;;;;;;4404458;32;20081;-76
2023/08/28 10:09:01;;;;;;;0.30;0.30;;;18.10;99.90;;;;;;4392524;32;20098;-75
2023/08/28 10:11:43;;;;;;;0.30;0.30;;;18.20;99.90;;;;;;4398255;32;20097;-76
2023/08/28 10:14:10;;;;;;;0.40;0.40;;;18.20;99.90;;;;;;4404688;32;20105;-75
2023/08/28 10:16:41;;;;;;;0.28;0.28;;;18.30;99.90;;;;;;4398992;32;20097;-75
2023/08/28 10:19:30;;;;;;;0.30;0.30;;;18.50;99.90;;;;;;4389509;32;20216;-75
2023/08/28 10:21:57;;;;;;;0.50;0.50;;;18.40;99.90;;;;;;4390315;32;20434;-76
2023/08/28 10:24:25;;;;;;;0.30;0.30;;;18.50;99.90;;;;;;4396415;32;20120;-77
2023/08/28 10:26:52;;;;;;;0.30;0.30;;;18.70;99.90;;;;;;4399434;32;20469;-75
2023/08/28 10:29:19;;;;;;;0.20;0.20;;;18.90;99.90;;;;;;4401890;32;20477;-76
2023/08/28 10:31:45;;;;;;;0.28;0.28;;;18.90;99.90;;;;;;4405800;32;20142;-76
2023/08/28 10:34:12;;;;;;;0.37;0.37;;;18.90;99.90;;;;;;4406695;32;20082;-76
2023/08/28 10:36:39;;;;;;;1.37;0.52;;;18.90;99.90;;;;;;4412735;32;20224;-75
2023/08/28 10:39:05;;;;;;;0.30;0.30;;;18.90;99.90;;;;;;4399781;32;20282;-74
2023/08/28 10:41:32;;;;;;;0.32;0.32;;;19.00;99.90;;;;;;4407013;32;20131;-79
2023/08/28 10:43:59;;;;;;;0.37;0.37;;;19.20;99.90;;;;;;4429347;26;20080;-62
2023/08/28 10:46:27;;;;;;;0.17;0.17;;;19.50;99.90;;;;;;4424903;32;20181;-62
2023/08/28 10:48:57;;;;;;;0.40;0.40;;;19.80;99.90;;;;;;4401442;32;20116;-61
2023/08/28 10:51:32;;;;;;;0.30;0.30;;;20.10;99.90;;;;;;4399658;32;20138;-61
2023/08/28 10:54:01;;;;;;;2.28;0.30;;;20.30;99.90;;;;;;4420376;32;20162;-62
2023/08/28 10:56:30;;;;;;;0.30;0.30;;;20.30;99.90;;;;;;4396789;32;21572;-61
2023/08/28 10:59:20;;;;;;;0.30;0.30;;;20.00;99.90;;;;;;4400951;32;20630;-61
2023/08/28 11:02:03;;;;;;;0.55;0.55;;;19.80;99.90;;;;;;4401715;32;20524;-62
2023/08/28 11:04:35;;;;;;;0.43;0.43;;;19.80;99.90;;;;;;4406421;32;20552;-62
2023/08/28 11:07:02;;;;;;;0.50;0.50;;;19.80;99.90;;;;;;4417845;32;20381;-60
2023/08/28 11:09:30;;;;;;;0.30;0.30;;;19.80;99.90;;;;;;4418889;32;20213;-59
2023/08/28 11:12:01;;;;;;;0.30;0.30;;;19.70;99.90;;;;;;4422623;32;20084;-62
2023/08/28 11:14:33;;;;;;;0.25;0.25;;;19.50;99.90;;;;;;4418920;32;20531;-60
2023/08/28 11:17:15;;;;;;;0.30;0.30;;;19.60;99.90;;;;;;4410326;32;20077;-59
2023/08/28 11:19:59;;;;;;;0.30;0.30;;;19.80;99.90;;;;;;4406682;32;20133;-61
2023/08/28 11:22:29;;;;;;;0.20;0.20;;;19.80;99.90;;;;;;4419377;32;20116;-62
2023/08/28 11:24:55;;;;;;;0.33;0.33;;;19.80;99.90;;;;;;4419579;32;20096;-62
2023/08/28 11:27:42;;;;;;;0.30;0.30;;;19.80;99.90;;;;;;4420032;32;22018;-62
2023/08/28 11:30:08;;;;;;;0.20;0.20;;;19.80;99.90;;;;;;4414622;32;20089;-61
2023/08/28 11:32:35;;;;;;;0.30;0.30;;;19.80;99.90;;;;;;4419980;32;20081;-61
2023/08/28 11:35:04;;;;;;;0.20;0.20;;;19.80;99.90;;;;;;4401902;32;20080;-61
2023/08/28 11:37:32;;;;;;;0.20;0.20;;;19.90;99.90;;;;;;4407072;32;20077;-62
2023/08/28 11:39:59;;;;;;;0.93;0.50;;;20.00;99.90;;;;;;4388471;32;21482;-62
2023/08/28 11:42:26;;;;;;;0.50;0.50;;;20.10;99.90;;;;;;4400133;32;20253;-62
2023/08/28 11:44:52;;;;;;;0.30;0.30;;;20.20;99.90;;;;;;4401017;32;20116;-61
2023/08/28 11:47:27;;;;;;;0.30;0.30;;;20.10;99.90;;;;;;4391428;32;135750;-62
2023/08/28 11:49:54;;;;;;;0.30;0.30;;;20.20;99.90;;;;;;4410385;32;20148;-62
2023/08/28 11:52:20;;;;;;;0.22;0.22;;;20.40;99.90;;;;;;4418939;32;20930;-62
2023/08/28 11:54:46;;;;;;;0.20;0.20;;;20.40;99.90;;;;;;4411993;32;20100;-62
2023/08/28 11:57:14;;;;;;;0.20;0.20;;;20.40;99.90;;;;;;4416803;32;20081;-63
2023/08/28 11:59:41;;;;;;;1.90;1.25;;;20.20;99.90;;;;;;4402336;32;20093;-62
2023/08/28 12:02:08;;;;;;;0.30;0.30;;;20.10;99.90;;;;;;4402439;32;20084;-62
2023/08/28 12:04:36;;;;;;;0.28;0.28;;;19.80;99.90;;;;;;4421032;32;20077;-62
2023/08/28 12:07:04;;;;;;;0.30;0.30;;;19.80;99.90;;;;;;4410280;32;21309;-63
2023/08/28 12:09:31;;;;;;;0.25;0.25;;;19.60;99.90;;;;;;4414483;32;20436;-63
2023/08/28 12:11:57;;;;;;;2.08;0.37;;;19.70;99.90;;;;;;4411948;32;20077;-63
2023/08/28 12:14:24;;;;;;;0.20;0.20;;;19.80;99.90;;;;;;4412360;32;20819;-60
2023/08/28 12:16:50;;;;;;;0.20;0.20;;;19.80;99.90;;;;;;4418488;32;20527;-62
2023/08/28 12:19:21;;;;;;;0.28;0.28;;;19.90;99.90;;;;;;4417024;32;20112;-62
2023/08/28 12:21:46;;;;;;;1.30;0.40;;;19.90;99.90;;;;;;4416744;32;20108;-62
2023/08/28 12:24:12;;;;;;;0.30;0.30;;;20.00;99.90;;;;;;4421990;32;20614;-62
2023/08/28 12:26:43;;;;;;;0.40;0.40;;;19.90;99.90;;;;;;4427115;32;20105;-61
2023/08/28 12:29:08;;;;;;;;;;;20.00;99.90;;;;;;4407003;32;20061;-63
2023/08/28 12:31:35;;;;;;;0.20;0.20;;;20.00;99.90;;;;;;4406252;32;19971;-63
2023/08/28 12:34:09;;;;;;;0.28;0.28;;;20.30;99.90;;;;;;4424669;32;20088;-61
2023/08/28 12:36:39;;;;;;;0.20;0.20;;;20.30;99.90;;;;;;4392008;32;20108;-63
2023/08/28 12:39:06;;;;;;;;;;;20.30;99.90;;;;;;4412566;32;20456;-62
2023/08/28 12:41:35;;;;;;;0.20;0.20;;;20.50;99.90;;;;;;4415489;32;20371;-63
2023/08/28 12:44:01;;;;;;;0.20;0.20;;;20.50;99.90;;;;;;4426609;32;20086;-62
2023/08/28 12:46:26;;;;;;;0.20;0.20;;;20.50;99.90;;;;;;4422176;32;20096;-63
2023/08/28 12:48:53;;;;;;;0.20;0.20;;;20.40;99.90;;;;;;4438157;32;20105;-63